Jack Mc Namara Field Airport
KCEC : rendu visible

Aérodrome :











RETROUVEZ-NOUS SUR...

 
LOGIN :

S'inscrire | Disclaimer

   EN    FR    IT 

 









Légende :    VFR   VFR Marginal   IFR   IFR Intensif   IFR Très Intensif
Visi : 
Plafond : 
>= 8 km
>= 3000ft
5 à 8 km
1000 à 3000 ft
1500m à 5 km
500 à 1000 ft
800 à 1500m
200 à 500 ft
< 800m
< 200 ft
Symboles :   Orages  Brouillard  Fortes neiges  Fortes précipitations  Vent > 20 kt






- Altitude de l'aérodrome : 61 ft
- Code IATA : CEC


KCEC - Jack Mc Namara Field

DERNIER METAR :
  • 281156Z AUTO 16008KT 10SM FEW013 FEW020 OVC040 09/07 A3016 RMK AO2 RAB37E56 SLP214 P0000 60010 70011 T00890072 10100 20089 58008

METARs EXPIRÉS :
  • 281056Z AUTO 15008KT 10SM FEW024 SCT034 OVC060 09/07 A3017 RMK AO2 RAE53 SLP218 P0001 T00890072
  • 281017Z AUTO 15011KT 10SM -RA SCT019 BKN041 OVC060 09/08 A3018 RMK AO2 P0000 T00890078
  • 281010Z AUTO 15009KT 9SM -RA SCT014 BKN022 OVC065 09/08 A3018 RMK AO2 P0000 T00890078
  • 280956Z AUTO 16010KT 10SM -RA FEW016 BKN042 OVC060 09/08 A3018 RMK AO2 SLP221 P0001 T00890078
  • 280926Z AUTO 15010KT 10SM -RA FEW015 BKN049 OVC060 09/08 A3018 RMK AO2 P0000 T00890078

TAF KCEC
Valide du 28 à 12h jusqu'au 29 à 12h UTC


281135Z 2812/2912 15009KT 6SM -RA FEW015 SCT025 OVC035
TEMPO 2813/2816 BKN025
FM281600 15010KT 6SM -SHRA SCT015 BKN025 OVC040
FM282200 17008KT P6SM -RA SCT025 OVC040
FM291000 18012G18KT 5SM SHRA SCT015 BKN020 OVC030



MET'MAP, la Météo Aéronautique d'un coup d'oeil ! - Copyright ORBIFLY Décembre 2007 - Disclaimer

ORBIFLY MET'MAP TEAM :

Programmation & Développement : Alexandra Zaïnal
Sur une idée originale de : Baudouin d'Aumeries
Assistance à la programmation : Marc-Olivier Méhu
Soutien technique & logistique : Manuel Goepfert

Contact : metmap@orbifly.com




SOURCES & CREDITS :

   NOAA       Earth
Advisory